METAR Data
IDs: Format: Raw Decoded Include TAF

Data at: 0929 UTC 28 Jul 2021

KCPU 280915Z AUTO 00000KT 10SM CLR 22/07 A3000 RMK AO2 T02150069
KCPU 280855Z AUTO 00000KT 10SM CLR 22/07 A3000 RMK AO2 T02160068
KCPU 280835Z AUTO 00000KT 10SM CLR 22/07 A3001 RMK AO2 T02180066
KCPU 280815Z AUTO 00000KT 10SM CLR 23/07 A3001 RMK AO2 T02250066
KCPU 280755Z AUTO 00000KT 10SM CLR 23/07 A3001 RMK AO2 T02290067 403630215
KCPU 280735Z AUTO 13003KT 10SM CLR 23/07 A3001 RMK AO2 T02290066
KCPU 280715Z AUTO 00000KT 10SM CLR 24/08 A3001 RMK AO2 T02430075
KCPU 280655Z AUTO 00000KT 10SM CLR 25/09 A3000 RMK AO2 T02470090
KCPU 280635Z AUTO 00000KT 10SM CLR 25/09 A3000 RMK AO2 T02530092
KCPU 280615Z AUTO 00000KT 10SM CLR 26/09 A3000 RMK AO2 T02560093
KCPU 280555Z AUTO 00000KT 10SM CLR 26/09 A3000 RMK AO2 T02580093 10361 20258
KCPU 280535Z AUTO 36003KT 10SM CLR 26/09 A3000 RMK AO2 T02620093
KCPU 280515Z AUTO 35003KT 10SM CLR 27/09 A2999 RMK AO2 T02700091
KCPU 280455Z AUTO 34004KT 10SM CLR 28/09 A2999 RMK AO2 T02790090
KCPU 280435Z AUTO 32006KT 10SM CLR 29/09 A2998 RMK AO2 T02910090
KCPU 280415Z AUTO 33007KT 10SM CLR 30/08 A2998 RMK AO2 T02970084
KCPU 280355Z AUTO 32007KT 10SM CLR 30/08 A2997 RMK AO2 T03020076
KCPU 280335Z AUTO 32008KT 10SM CLR 31/08 A2997 RMK AO2 T03090075
KCPU 280315Z AUTO 32007KT 10SM CLR 32/08 A2997 RMK AO2 T03150078
KCPU 280255Z AUTO 32007KT 10SM CLR 33/08 A2997 RMK AO2 T03250075
KCPU 280235Z AUTO 31007KT 10SM CLR 33/07 A2996 RMK AO2 T03320070
KCPU 280215Z AUTO 31007KT 10SM CLR 34/06 A2996 RMK AO2 T03360062
KCPU 280155Z AUTO 31008KT 10SM CLR 34/06 A2996 RMK AO2 T03410057
KCPU 280135Z AUTO 31009KT 10SM CLR 35/05 A2996 RMK AO2 T03480053
KCPU 280115Z AUTO 32009KT 10SM CLR 35/05 A2997 RMK AO2 T03510054
KCPU 280055Z AUTO 32009KT 10SM CLR 35/05 A2997 RMK AO2 T03520053
KCPU 280035Z AUTO 31008KT 10SM CLR 36/05 A2997 RMK AO2 T03550051
KCPU 280015Z AUTO 30008KT 10SM CLR 36/05 A2998 RMK AO2 T03610049
KCPU 272355Z AUTO 30008KT 10SM CLR 36/04 A2998 RMK AO2 T03560044 10363 20285
KCPU 272335Z AUTO 31006KT 10SM CLR 36/04 A2998 RMK AO2 T03580043
KCPU 272315Z AUTO 29005KT 10SM CLR 36/04 A2998 RMK AO2 T03560040
KCPU 272255Z AUTO 30006KT 10SM CLR 36/04 A2999 RMK AO2 T03580040
KCPU 272235Z AUTO 31007KT 10SM CLR 36/04 A2999 RMK AO2 T03610041
KCPU 272215Z AUTO 33007KT 10SM CLR 36/04 A2999 RMK AO2 T03600042
KCPU 272155Z AUTO 29007KT 250V320 10SM CLR 35/04 A3000 RMK AO2 T03530040
KCPU 272135Z AUTO 30006KT 10SM CLR 36/04 A3000 RMK AO2 T03560040
KCPU 272115Z AUTO 33004KT 10SM CLR 36/04 A3000 RMK AO2 T03570044
KCPU 272055Z AUTO 35004KT 10SM CLR 35/05 A3000 RMK AO2 T03480045
KCPU 272035Z AUTO 33006KT 10SM CLR 34/04 A3001 RMK AO2 T03440044
KCPU 272015Z AUTO 33003KT 10SM CLR 34/05 A3001 RMK AO2 T03410045
KCPU 271955Z AUTO 32004KT 10SM CLR 33/04 A3002 RMK AO2 T03320044
KCPU 271935Z AUTO 34005KT 10SM CLR 33/05 A3002 RMK AO2 T03330052
KCPU 271915Z AUTO 34005KT 10SM CLR 32/05 A3003 RMK AO2 T03200053
KCPU 271855Z AUTO 33007KT 10SM CLR 31/07 A3003 RMK AO2 T03110065
KCPU 271835Z AUTO 33007KT 10SM CLR 31/07 A3003 RMK AO2 T03070074
KCPU 271815Z AUTO 34007KT 10SM CLR 30/08 A3003 RMK AO2 T02960081
KCPU 271755Z AUTO 34004KT 10SM CLR 29/08 A3003 RMK AO2 T02850081 10286 20215
KCPU 271735Z AUTO 33003KT 10SM CLR 28/06 A3003 RMK AO2 T02810064
KCPU 271715Z AUTO 00000KT 10SM CLR 27/06 A3003 RMK AO2 T02690062
KCPU 271655Z AUTO 00000KT 10SM SCT120 25/06 A3002 RMK AO2 T02500055
KCPU 271635Z AUTO 00000KT 10SM BKN110 24/05 A3002 RMK AO2 T02420048
KCPU 271615Z AUTO 00000KT 10SM BKN120 24/05 A3002 RMK AO2 T02350045
KCPU 271555Z AUTO 00000KT 10SM OVC120 24/05 A3002 RMK AO2 T02350045
KCPU 271535Z AUTO 00000KT 10SM SCT120 23/04 A3002 RMK AO2 T02250042
KCPU 271515Z AUTO 00000KT 10SM CLR 23/05 A3001 RMK AO2 T02260045
KCPU 271455Z AUTO 00000KT 10SM CLR 22/05 A3001 RMK AO2 T02190045
KCPU 271435Z AUTO 00000KT 10SM CLR 22/04 A3001 RMK AO2 T02170041
KCPU 271415Z AUTO 00000KT 10SM CLR 22/04 A3000 RMK AO2 T02180037
KCPU 271355Z AUTO 35003KT 10SM SCT070 SCT100 SCT110 22/05 A3000 RMK AO2 T02220046
KCPU 271335Z AUTO 34004KT 10SM CLR 22/05 A2999 RMK AO2 T02220048
KCPU 271315Z AUTO 00000KT 10SM CLR 22/04 A2999 RMK AO2 T02170043
KCPU 271255Z AUTO 00000KT 10SM CLR 22/04 A2998 RMK AO2 T02170040
KCPU 271235Z AUTO 00000KT 10SM SCT075 22/04 A2998 RMK AO2 T02240044
KCPU 271215Z AUTO 00000KT 10SM CLR 22/04 A2998 RMK AO2 T02200041
KCPU 271155Z AUTO 00000KT 10SM CLR 22/05 A2997 RMK AO2 T02190045 10265 20215
KCPU 271135Z AUTO 00000KT 10SM CLR 22/04 A2997 RMK AO2 T02160042
KCPU 271115Z AUTO 00000KT 10SM BKN120 22/04 A2997 RMK AO2 T02170042
KCPU 271055Z AUTO 00000KT 10SM OVC120 23/05 A2997 RMK AO2 T02300050
KCPU 271035Z AUTO 00000KT 10SM BKN110 22/04 A2997 RMK AO2 T02200044
KCPU 271015Z AUTO 00000KT 10SM SCT110 23/04 A2997 RMK AO2 T02260037
KCPU 270955Z AUTO 00000KT 10SM CLR 23/05 A2997 RMK AO2 T02250053
KCPU 270935Z AUTO 00000KT 10SM CLR 22/05 A2997 RMK AO2 T02220054
KCPU 270915Z AUTO 00000KT 10SM CLR 22/05 A2996 RMK AO2 T02220049
KCPU 270855Z AUTO 00000KT 10SM CLR 23/05 A2995 RMK AO2 T02300050
KCPU 270835Z AUTO 36003KT 10SM CLR 23/05 A2995 RMK AO2 T02290049
KCPU 270815Z AUTO 00000KT 10SM CLR 23/04 A2996 RMK AO2 T02310036
KCPU 270755Z AUTO 00000KT 10SM CLR 24/00 A2995 RMK AO2 T02410002 403290195
KCPU 270735Z AUTO 00000KT 10SM CLR 24/00 A2994 RMK AO2 T02380000
KCPU 270715Z AUTO 00000KT 10SM CLR 25/01 A2993 RMK AO2 T02520007
KCPU 270655Z AUTO 00000KT 10SM CLR 25/01 A2995 RMK AO2 T02520010
KCPU 270635Z AUTO 00000KT 10SM CLR 25/00 A2997 RMK AO2 T02540000
KCPU 270615Z AUTO 00000KT 10SM CLR 26/00 A2997 RMK AO2 T02571005
KCPU 270555Z AUTO 00000KT 10SM CLR 27/M01 A2998 RMK AO2 T02651014 10326 20258
KCPU 270535Z AUTO 00000KT 10SM CLR 26/M01 A2998 RMK AO2 T02591010
KCPU 270515Z AUTO 00000KT 10SM CLR 27/M01 A2997 RMK AO2 T02681007
KCPU 270455Z AUTO 00000KT 10SM CLR 28/M02 A2997 RMK AO2 T02791016
KCPU 270435Z AUTO 31004KT 10SM CLR 27/M01 A2996 RMK AO2 T02721006
KCPU 270415Z AUTO 32004KT 10SM CLR 28/M01 A2996 RMK AO2 T02811007
KCPU 270355Z AUTO 35003KT 10SM CLR 28/M01 A2995 RMK AO2 T02821011
KCPU 270335Z AUTO 34003KT 10SM CLR 29/M01 A2994 RMK AO2 T02851015
KCPU 270315Z AUTO 33004KT 10SM CLR 29/M01 A2993 RMK AO2 T02901015
KCPU 270255Z AUTO 00000KT 10SM CLR 29/M02 A2993 RMK AO2 T02941021
KCPU 270235Z AUTO 34003KT 10SM CLR 30/00 A2993 RMK AO2 T02981005
KCPU 270215Z AUTO 34003KT 10SM CLR 31/00 A2992 RMK AO2 T03051004
KCPU 270155Z AUTO 33004KT 10SM CLR 31/M01 A2992 RMK AO2 T03071010
KCPU 270135Z AUTO 34005KT 10SM CLR 31/M01 A2992 RMK AO2 T03141013
KCPU 270115Z AUTO 35005KT 10SM CLR 31/00 A2990 RMK AO2 T03121002
KCPU 270055Z AUTO 33006KT 10SM CLR 32/00 A2991 RMK AO2 T03211002
KCPU 270035Z AUTO 34005KT 10SM CLR 32/M02 A2990 RMK AO2 T03231019
KCPU 270015Z AUTO 34006KT 10SM CLR 32/M03 A2990 RMK AO2 T03241033
KCPU 262355Z AUTO 34007KT 10SM CLR 33/M03 A2991 RMK AO2 T03251032 10329 20300
KCPU 262335Z AUTO 35007KT 10SM CLR 33/M02 A2992 RMK AO2 T03261019
KCPU 262315Z AUTO 33007KT 10SM CLR 33/M02 A2991 RMK AO2 T03261017
KCPU 262255Z AUTO 34006KT 10SM CLR 32/M02 A2991 RMK AO2 T03241016
KCPU 262235Z AUTO 34006KT 10SM CLR 33/M02 A2991 RMK AO2 T03261025
KCPU 262215Z AUTO 35006KT 10SM CLR 33/M03 A2991 RMK AO2 T03271032
KCPU 262155Z AUTO 32006KT 10SM CLR 32/M03 A2990 RMK AO2 T03241027
KCPU 262135Z AUTO 33006KT 10SM CLR 32/M04 A2991 RMK AO2 T03201043